Time;durP1;ratioP1;P1;durP2;ratioP2;P2;SDS_P1;SDS_P2;PMS_P1;PMS_P2;Temp;Humidity;BMP_temperature;BMP_pressure;BME280_temperature;BME280_humidity;BME280_pressure;Samples;Min_cycle;Max_cycle;Signal;HPM_P1;HPM_P2
2022/07/17 00:00:00;;;;;;;3.47;2.00;;;28.60;47.50;;;;;;6185292;23;20432;-63
2022/07/17 00:02:26;;;;;;;5.50;2.42;;;28.60;47.50;;;;;;6185219;23;20012;-63
2022/07/17 00:04:52;;;;;;;5.88;2.35;;;28.50;47.90;;;;;;6185534;23;20005;-63
2022/07/17 00:07:18;;;;;;;6.10;2.60;;;28.50;48.50;;;;;;6185086;23;20005;-63
2022/07/17 00:09:43;;;;;;;6.50;2.67;;;28.50;48.90;;;;;;6185643;23;20088;-62
2022/07/17 00:12:09;;;;;;;4.78;2.65;;;28.50;49.50;;;;;;6185253;23;20024;-63
2022/07/17 00:14:35;;;;;;;4.13;2.60;;;28.40;49.80;;;;;;6185475;23;20420;-67
2022/07/17 00:17:01;;;;;;;6.60;2.53;;;28.30;50.20;;;;;;6185104;23;20021;-63
2022/07/17 00:19:27;;;;;;;9.88;2.83;;;28.20;50.20;;;;;;6185444;23;20039;-63
2022/07/17 00:21:53;;;;;;;12.45;3.22;;;28.20;50.30;;;;;;6185212;23;20005;-63
2022/07/17 00:24:21;;;;;;;4.45;2.92;;;28.20;50.40;;;;;;6185128;23;20435;-63
2022/07/17 00:26:48;;;;;;;7.50;2.80;;;28.10;50.60;;;;;;6185666;23;20364;-63
2022/07/17 00:29:14;;;;;;;4.05;2.80;;;28.10;50.60;;;;;;6185540;23;20017;-63
2022/07/17 00:31:39;;;;;;;6.00;3.03;;;28.10;51.00;;;;;;6185185;23;20009;-63
2022/07/17 00:34:05;;;;;;;5.43;3.03;;;28.10;51.00;;;;;;6185294;23;20332;-63
2022/07/17 00:36:31;;;;;;;4.65;2.80;;;28.10;51.10;;;;;;6185280;23;20001;-63
2022/07/17 00:38:56;;;;;;;6.30;2.67;;;28.00;51.20;;;;;;6185601;23;20013;-63
2022/07/17 00:41:22;;;;;;;7.15;2.50;;;28.00;51.30;;;;;;6184787;23;19997;-64
2022/07/17 00:43:48;;;;;;;4.57;2.60;;;28.00;51.30;;;;;;6184845;23;20009;-63
2022/07/17 00:46:14;;;;;;;5.25;2.90;;;28.00;51.30;;;;;;6185273;23;20025;-63
2022/07/17 00:48:40;;;;;;;4.28;3.10;;;28.00;51.40;;;;;;6185074;23;20372;-63
2022/07/17 00:51:07;;;;;;;5.35;2.25;;;28.00;51.30;;;;;;6185147;23;20005;-63
2022/07/17 00:53:35;;;;;;;6.00;2.65;;;28.00;50.90;;;;;;6184940;23;20001;-63
2022/07/17 00:56:05;;;;;;;6.95;2.60;;;28.00;50.80;;;;;;6187108;23;20005;-63
2022/07/17 00:58:34;;;;;;;5.28;2.30;;;28.00;50.50;;;;;;6184924;23;20001;-63
2022/07/17 01:01:05;;;;;;;13.82;3.42;;;28.00;50.20;;;;;;6183769;23;20235;-63
2022/07/17 01:03:31;;;;;;;6.35;2.38;;;28.00;50.20;;;;;;6183418;23;20534;-63
2022/07/17 01:05:57;;;;;;;5.15;2.47;;;28.00;50.20;;;;;;6186845;23;20013;-63
2022/07/17 01:08:23;;;;;;;8.23;2.75;;;28.00;50.40;;;;;;6186597;23;20448;-63
2022/07/17 01:10:49;;;;;;;9.18;2.70;;;28.00;50.10;;;;;;6186849;23;20360;-63
2022/07/17 01:13:15;;;;;;;8.88;2.65;;;28.00;50.00;;;;;;6186478;23;20005;-63
2022/07/17 01:15:41;;;;;;;5.43;2.88;;;28.00;50.20;;;;;;6187218;23;20124;-63
2022/07/17 01:18:09;;;;;;;5.55;2.50;;;28.00;50.50;;;;;;6186723;23;20065;-63
2022/07/17 01:20:37;;;;;;;5.25;2.83;;;28.00;50.20;;;;;;6186446;23;20423;-62
2022/07/17 01:23:02;;;;;;;4.40;2.60;;;28.00;50.30;;;;;;6186855;23;20001;-63
2022/07/17 01:25:29;;;;;;;7.55;2.80;;;28.00;50.30;;;;;;6186784;23;20044;-63
2022/07/17 01:27:54;;;;;;;5.40;2.63;;;28.00;50.50;;;;;;6186145;23;20029;-62
2022/07/17 01:30:20;;;;;;;5.07;2.58;;;27.80;50.50;;;;;;6186887;23;20088;-62
2022/07/17 01:32:46;;;;;;;4.00;2.33;;;27.80;50.80;;;;;;6186870;23;20082;-63
2022/07/17 01:35:13;;;;;;;11.27;2.80;;;27.70;50.90;;;;;;6186269;23;20447;-63
2022/07/17 01:37:40;;;;;;;6.63;2.75;;;27.70;51.10;;;;;;6186415;23;20009;-63
2022/07/17 01:40:07;;;;;;;7.28;2.88;;;27.60;51.20;;;;;;6186327;23;20020;-63
2022/07/17 01:42:33;;;;;;;3.05;2.40;;;27.60;50.90;;;;;;6186454;23;19997;-63
2022/07/17 01:44:59;;;;;;;6.93;3.17;;;27.60;50.90;;;;;;6186935;23;20043;-62
2022/07/17 01:47:25;;;;;;;7.78;2.58;;;27.60;50.50;;;;;;6186416;23;20012;-63
2022/07/17 01:49:54;;;;;;;3.70;2.55;;;27.60;50.50;;;;;;6186831;23;20005;-63
2022/07/17 01:52:21;;;;;;;5.47;2.33;;;27.60;50.40;;;;;;6187099;23;20332;-63
2022/07/17 01:54:47;;;;;;;4.93;2.60;;;27.50;50.20;;;;;;6186291;23;20013;-63
2022/07/17 01:57:13;;;;;;;5.53;3.00;;;27.50;50.00;;;;;;6186300;23;20001;-63
2022/07/17 01:59:40;;;;;;;6.10;2.55;;;27.50;50.20;;;;;;6186728;23;20458;-63
2022/07/17 02:02:07;;;;;;;4.35;2.35;;;27.40;50.10;;;;;;6186783;23;20055;-63
2022/07/17 02:04:38;;;;;;;4.63;2.70;;;27.40;50.00;;;;;;6186270;23;20070;-63
2022/07/17 02:07:04;;;;;;;4.82;2.40;;;27.40;50.20;;;;;;6186548;23;19997;-63
2022/07/17 02:09:31;;;;;;;9.35;2.65;;;27.40;50.30;;;;;;6186155;23;20076;-63
2022/07/17 02:11:57;;;;;;;8.32;2.60;;;27.40;49.80;;;;;;6186251;23;20001;-63
2022/07/17 02:14:24;;;;;;;3.42;2.50;;;27.30;49.70;;;;;;6186307;23;20009;-63
2022/07/17 02:16:49;;;;;;;5.32;2.25;;;27.30;49.90;;;;;;6186230;23;20013;-63
2022/07/17 02:19:15;;;;;;;4.90;2.08;;;27.30;49.90;;;;;;6186209;23;20017;-63
2022/07/17 02:21:41;;;;;;;5.25;2.40;;;27.30;49.60;;;;;;6186291;23;20120;-63
2022/07/17 02:24:07;;;;;;;2.92;2.17;;;27.30;49.40;;;;;;6186234;23;20044;-63
2022/07/17 02:26:33;;;;;;;4.75;2.30;;;27.30;49.00;;;;;;6186701;23;20089;-63
2022/07/17 02:28:58;;;;;;;4.10;2.40;;;27.30;48.30;;;;;;6185999;23;20017;-63
2022/07/17 02:31:24;;;;;;;5.15;2.50;;;27.30;48.20;;;;;;6186083;23;19997;-63
2022/07/17 02:33:50;;;;;;;11.77;2.92;;;27.30;48.70;;;;;;6186317;23;20009;-63
2022/07/17 02:36:16;;;;;;;4.30;2.13;;;27.20;48.10;;;;;;6186481;23;20005;-64
2022/07/17 02:38:42;;;;;;;6.20;2.40;;;27.20;48.10;;;;;;6186383;23;20111;-63
2022/07/17 02:41:07;;;;;;;2.50;2.10;;;27.20;48.00;;;;;;6186623;23;20080;-64
2022/07/17 02:43:33;;;;;;;4.30;2.30;;;27.10;47.80;;;;;;6186153;23;20001;-63
2022/07/17 02:46:00;;;;;;;4.78;2.10;;;27.10;47.80;;;;;;6185998;23;20458;-64
2022/07/17 02:48:26;;;;;;;5.82;2.42;;;27.10;47.70;;;;;;6185653;23;20108;-63
2022/07/17 02:50:51;;;;;;;5.85;2.00;;;27.10;47.60;;;;;;6186300;23;20037;-64
2022/07/17 02:53:17;;;;;;;6.35;2.45;;;27.10;47.10;;;;;;6186269;23;20046;-63
2022/07/17 02:55:43;;;;;;;6.65;2.40;;;27.10;47.30;;;;;;6185908;23;20001;-64
2022/07/17 02:58:08;;;;;;;7.30;2.83;;;27.10;47.10;;;;;;6185952;23;20139;-63
2022/07/17 03:00:34;;;;;;;4.53;2.17;;;27.10;47.10;;;;;;6185802;23;20012;-63
2022/07/17 03:03:00;;;;;;;5.85;2.50;;;27.00;46.60;;;;;;6186143;23;20440;-63
2022/07/17 03:05:26;;;;;;;4.13;2.38;;;27.00;46.80;;;;;;6185958;23;20055;-63
2022/07/17 03:07:51;;;;;;;9.75;2.60;;;27.00;46.90;;;;;;6186006;23;20017;-63
2022/07/17 03:10:17;;;;;;;5.72;1.95;;;27.00;46.60;;;;;;6185746;23;20452;-64
2022/07/17 03:12:43;;;;;;;8.57;2.17;;;27.00;46.60;;;;;;6186235;23;20001;-64
2022/07/17 03:15:09;;;;;;;2.75;2.00;;;26.90;46.40;;;;;;6186034;23;20028;-63
2022/07/17 03:17:37;;;;;;;5.38;2.10;;;26.90;46.40;;;;;;6185382;23;20100;-63
2022/07/17 03:20:03;;;;;;;8.20;2.20;;;26.90;46.10;;;;;;6185738;23;20085;-63
2022/07/17 03:22:29;;;;;;;6.22;2.10;;;27.00;46.20;;;;;;6185997;23;20009;-63
2022/07/17 03:24:54;;;;;;;5.35;2.33;;;27.00;46.20;;;;;;6185952;23;20001;-63
2022/07/17 03:27:20;;;;;;;2.95;2.00;;;26.90;46.10;;;;;;6185760;23;20009;-64
2022/07/17 03:29:46;;;;;;;4.07;1.92;;;26.90;46.20;;;;;;6185615;23;20002;-63
2022/07/17 03:32:11;;;;;;;3.30;2.10;;;26.80;46.10;;;;;;6185691;23;20033;-63
2022/07/17 03:34:38;;;;;;;3.33;2.25;;;26.80;45.90;;;;;;6185888;23;20447;-63
2022/07/17 03:37:04;;;;;;;3.78;2.10;;;26.80;46.10;;;;;;6185661;23;20029;-63
2022/07/17 03:39:30;;;;;;;5.15;2.25;;;26.80;46.10;;;;;;6185575;23;20000;-63
2022/07/17 03:41:56;;;;;;;3.47;2.03;;;26.80;45.90;;;;;;6185035;23;20012;-64
2022/07/17 03:44:22;;;;;;;7.90;2.10;;;26.80;46.00;;;;;;6185559;23;20032;-63
2022/07/17 03:46:48;;;;;;;4.18;2.30;;;26.80;46.00;;;;;;6185496;23;20436;-63
2022/07/17 03:49:13;;;;;;;5.72;2.22;;;26.80;46.10;;;;;;6185714;23;20058;-63
2022/07/17 03:51:39;;;;;;;3.90;2.13;;;26.80;45.90;;;;;;6185280;23;20052;-63
2022/07/17 03:54:05;;;;;;;3.90;2.20;;;26.70;45.50;;;;;;6185628;23;20409;-63
2022/07/17 03:56:31;;;;;;;2.78;1.90;;;26.70;45.60;;;;;;6185287;23;20001;-64
2022/07/17 03:58:56;;;;;;;6.38;2.30;;;26.70;45.50;;;;;;6185097;23;20431;-63
2022/07/17 04:01:22;;;;;;;3.95;2.28;;;26.70;45.50;;;;;;6185317;23;20080;-63
2022/07/17 04:03:48;;;;;;;5.28;2.30;;;26.70;45.80;;;;;;6182960;23;20056;-64
2022/07/17 04:06:14;;;;;;;5.65;2.45;;;26.70;45.70;;;;;;6182136;23;20024;-63
2022/07/17 04:08:39;;;;;;;5.65;2.00;;;26.70;45.80;;;;;;6183430;23;20013;-63
2022/07/17 04:11:05;;;;;;;9.50;2.10;;;26.70;45.70;;;;;;6184981;23;20424;-63
2022/07/17 04:13:31;;;;;;;7.78;1.98;;;26.70;45.60;;;;;;6185297;23;20041;-63
2022/07/17 04:15:57;;;;;;;5.22;2.20;;;26.60;45.40;;;;;;6186077;23;20001;-63
2022/07/17 04:18:24;;;;;;;9.30;2.83;;;26.70;45.30;;;;;;6185194;23;20024;-63
2022/07/17 04:20:51;;;;;;;5.75;2.10;;;26.70;45.30;;;;;;6185638;23;20031;-63
2022/07/17 04:23:17;;;;;;;4.15;2.33;;;26.70;45.10;;;;;;6184919;23;20001;-64
2022/07/17 04:25:43;;;;;;;3.35;1.80;;;26.60;44.60;;;;;;6185342;23;20016;-64
2022/07/17 04:28:10;;;;;;;3.80;2.13;;;26.70;44.70;;;;;;6186009;23;20013;-63
2022/07/17 04:30:35;;;;;;;9.93;1.92;;;26.70;44.50;;;;;;6186773;23;20080;-63
2022/07/17 04:33:01;;;;;;;8.25;2.20;;;26.70;44.60;;;;;;6187608;23;20035;-63
2022/07/17 04:35:27;;;;;;;14.07;2.47;;;26.60;44.40;;;;;;6187413;23;19997;-63
2022/07/17 04:37:53;;;;;;;3.28;2.00;;;26.60;44.30;;;;;;6187574;23;20055;-64
2022/07/17 04:40:19;;;;;;;5.40;2.08;;;26.60;44.20;;;;;;6187158;23;20408;-65
2022/07/17 04:42:45;;;;;;;6.05;2.20;;;26.70;43.80;;;;;;6187693;23;20076;-66
2022/07/17 04:45:11;;;;;;;3.88;2.10;;;26.70;43.90;;;;;;6187114;23;20055;-66
2022/07/17 04:47:37;;;;;;;9.73;2.85;;;26.60;43.80;;;;;;6187405;23;20078;-65
2022/07/17 04:50:03;;;;;;;3.45;1.75;;;26.70;44.20;;;;;;6187366;23;20037;-65
2022/07/17 04:52:29;;;;;;;26.65;4.95;;;26.60;44.00;;;;;;6187374;23;20376;-65
2022/07/17 04:54:54;;;;;;;5.22;2.40;;;26.60;45.60;;;;;;6187007;23;20012;-65
2022/07/17 04:57:20;;;;;;;6.10;2.50;;;26.60;46.70;;;;;;6187161;23;20005;-64
2022/07/17 04:59:46;;;;;;;12.90;4.13;;;26.60;46.20;;;;;;6186925;23;20069;-65
2022/07/17 05:02:11;;;;;;;5.22;2.28;;;26.60;46.00;;;;;;6186948;23;20012;-63
2022/07/17 05:04:37;;;;;;;8.93;2.47;;;26.50;45.50;;;;;;6187107;23;20041;-64
2022/07/17 05:07:03;;;;;;;9.07;2.17;;;26.50;46.00;;;;;;6187070;23;20005;-65
2022/07/17 05:09:29;;;;;;;19.70;2.30;;;26.50;45.40;;;;;;6186855;23;20055;-63
2022/07/17 05:11:54;;;;;;;15.70;2.25;;;26.50;45.60;;;;;;6186986;23;20005;-65
2022/07/17 05:14:20;;;;;;;6.38;1.60;;;26.50;45.20;;;;;;6186622;23;20012;-63
2022/07/17 05:16:46;;;;;;;3.30;1.67;;;26.50;46.10;;;;;;6186714;23;20017;-63
2022/07/17 05:19:11;;;;;;;3.83;1.60;;;26.50;46.20;;;;;;6187081;23;20001;-63
2022/07/17 05:21:38;;;;;;;2.80;1.70;;;26.50;45.80;;;;;;6186865;23;20059;-64
2022/07/17 05:24:04;;;;;;;7.20;1.88;;;26.50;46.10;;;;;;6187039;23;20024;-63
2022/07/17 05:26:30;;;;;;;3.90;1.60;;;26.60;45.90;;;;;;6186725;23;20064;-63
2022/07/17 05:28:56;;;;;;;3.03;1.88;;;26.60;45.30;;;;;;6186764;23;20040;-62
2022/07/17 05:31:21;;;;;;;7.55;1.83;;;26.60;45.30;;;;;;6186705;23;20004;-63
2022/07/17 05:33:47;;;;;;;4.82;1.60;;;26.60;45.50;;;;;;6186847;23;20005;-63
2022/07/17 05:36:13;;;;;;;6.80;1.83;;;26.60;45.40;;;;;;6186860;23;20005;-63
2022/07/17 05:38:38;;;;;;;3.63;1.85;;;26.60;45.70;;;;;;6186867;23;20009;-63
2022/07/17 05:41:04;;;;;;;5.57;1.48;;;26.60;44.70;;;;;;6186094;23;20420;-64
2022/07/17 05:43:30;;;;;;;4.10;1.52;;;26.70;43.90;;;;;;6186551;23;20040;-72
2022/07/17 05:45:57;;;;;;;9.80;1.60;;;26.70;43.50;;;;;;6186885;23;19997;-64
2022/07/17 05:48:24;;;;;;;2.72;1.42;;;26.80;43.90;;;;;;6186344;23;20448;-64
2022/07/17 05:50:50;;;;;;;3.65;1.30;;;26.70;43.40;;;;;;6187085;23;20365;-64
2022/07/17 05:53:16;;;;;;;5.43;1.50;;;26.80;42.40;;;;;;6186714;23;20435;-64
2022/07/17 05:55:42;;;;;;;2.90;1.35;;;26.90;42.40;;;;;;6186553;23;20004;-65
2022/07/17 05:58:08;;;;;;;4.22;1.52;;;26.90;42.70;;;;;;6186690;23;20028;-64
2022/07/17 06:00:34;;;;;;;4.10;1.65;;;26.90;42.60;;;;;;6186165;23;19997;-64
2022/07/17 06:03:01;;;;;;;4.05;1.73;;;26.90;42.40;;;;;;6186828;23;20013;-65
2022/07/17 06:05:27;;;;;;;5.50;1.77;;;27.00;42.70;;;;;;6186684;23;20005;-65
2022/07/17 06:07:53;;;;;;;6.63;1.50;;;27.00;42.70;;;;;;6185919;23;20428;-65
2022/07/17 06:10:19;;;;;;;4.47;1.90;;;27.00;42.80;;;;;;6186276;23;20024;-64
2022/07/17 06:12:45;;;;;;;2.85;1.65;;;27.00;42.80;;;;;;6185234;23;20001;-65
2022/07/17 06:15:11;;;;;;;4.70;1.50;;;27.10;41.80;;;;;;6186046;23;20013;-65
2022/07/17 06:17:37;;;;;;;4.15;1.80;;;27.10;41.50;;;;;;6185296;23;20348;-65
2022/07/17 06:20:03;;;;;;;4.05;1.73;;;27.20;41.80;;;;;;6185758;23;20007;-67
2022/07/17 06:22:29;;;;;;;1.85;1.30;;;27.20;41.90;;;;;;6185985;23;20044;-65
2022/07/17 06:24:55;;;;;;;4.07;1.67;;;27.20;41.80;;;;;;6186033;23;20005;-65
2022/07/17 06:27:21;;;;;;;9.07;1.60;;;27.20;42.10;;;;;;6185973;23;20005;-65
2022/07/17 06:29:47;;;;;;;9.77;1.60;;;27.20;42.30;;;;;;6186482;23;20013;-65
2022/07/17 06:32:13;;;;;;;5.32;1.77;;;27.20;42.10;;;;;;6185767;23;20005;-64
2022/07/17 06:34:39;;;;;;;5.47;1.70;;;27.20;42.00;;;;;;6186168;23;20005;-65
2022/07/17 06:37:05;;;;;;;4.35;1.73;;;27.30;42.40;;;;;;6186204;23;20080;-65
2022/07/17 06:39:30;;;;;;;4.80;1.55;;;27.30;42.00;;;;;;6186678;23;20033;-65
2022/07/17 06:41:56;;;;;;;3.47;1.83;;;27.30;42.10;;;;;;6186230;23;20032;-65
2022/07/17 06:44:22;;;;;;;9.82;1.67;;;27.30;42.30;;;;;;6186662;23;20009;-65
2022/07/17 06:46:48;;;;;;;4.55;2.15;;;27.30;41.70;;;;;;6186608;23;20032;-65
2022/07/17 06:49:13;;;;;;;3.92;1.40;;;27.40;41.60;;;;;;6185765;23;20088;-65
2022/07/17 06:51:39;;;;;;;12.48;1.70;;;27.40;41.50;;;;;;6185981;23;20451;-65
2022/07/17 06:54:05;;;;;;;6.18;1.60;;;27.40;41.40;;;;;;6186397;23;20004;-65
2022/07/17 06:56:31;;;;;;;4.93;1.90;;;27.40;41.20;;;;;;6186395;23;20017;-65
2022/07/17 06:58:57;;;;;;;4.88;1.30;;;27.50;41.30;;;;;;6186001;23;20383;-65
2022/07/17 07:01:23;;;;;;;6.40;1.50;;;27.50;40.90;;;;;;6185973;23;20001;-65
2022/07/17 07:03:48;;;;;;;8.68;1.90;;;27.60;40.70;;;;;;6186266;23;20080;-65
2022/07/17 07:06:14;;;;;;;2.53;1.55;;;27.60;40.80;;;;;;6186091;23;20020;-65
2022/07/17 07:08:40;;;;;;;2.80;1.42;;;27.60;40.90;;;;;;6185995;23;20077;-64
2022/07/17 07:11:06;;;;;;;3.25;1.48;;;27.60;40.50;;;;;;6186253;23;20005;-67
2022/07/17 07:13:32;;;;;;;7.68;1.60;;;27.60;40.60;;;;;;6186047;23;20020;-65
2022/07/17 07:15:57;;;;;;;6.88;1.90;;;27.70;40.60;;;;;;6185912;23;20009;-65
2022/07/17 07:18:23;;;;;;;8.57;1.70;;;27.70;40.40;;;;;;6185787;23;20021;-71
2022/07/17 07:20:49;;;;;;;2.00;1.60;;;27.70;40.10;;;;;;6186158;23;20008;-65
2022/07/17 07:23:15;;;;;;;4.47;1.70;;;27.70;39.90;;;;;;6186300;23;20020;-65
2022/07/17 07:25:43;;;;;;;3.78;1.95;;;27.80;39.90;;;;;;6186296;23;20001;-70
2022/07/17 07:28:08;;;;;;;2.97;1.45;;;27.80;39.90;;;;;;6185489;23;20013;-65
2022/07/17 07:30:34;;;;;;;5.68;1.70;;;27.80;40.10;;;;;;6185782;23;20302;-65
2022/07/17 07:33:00;;;;;;;6.32;1.63;;;27.80;40.10;;;;;;6185339;23;20530;-66
2022/07/17 07:35:26;;;;;;;3.58;1.30;;;27.90;39.90;;;;;;6185573;23;20005;-65
2022/07/17 07:37:52;;;;;;;5.05;1.90;;;27.90;39.50;;;;;;6185765;23;20005;-65
2022/07/17 07:40:18;;;;;;;4.65;1.40;;;27.90;39.90;;;;;;6185717;23;20008;-65
2022/07/17 07:42:44;;;;;;;2.70;1.50;;;28.00;39.50;;;;;;6185967;23;20435;-65
2022/07/17 07:45:10;;;;;;;5.70;1.48;;;28.00;39.90;;;;;;6185789;23;20078;-65
2022/07/17 07:47:47;;;;;;;4.00;1.50;;;28.00;40.00;;;;;;6185587;23;20409;-64
2022/07/17 07:50:13;;;;;;;3.95;1.70;;;28.00;39.90;;;;;;6185562;23;20476;-65
2022/07/17 07:52:39;;;;;;;2.47;1.50;;;28.00;40.00;;;;;;6185943;23;20001;-65
2022/07/17 07:55:06;;;;;;;2.58;1.48;;;28.00;40.10;;;;;;6185551;23;20527;-65
2022/07/17 07:57:33;;;;;;;3.50;1.38;;;28.00;40.00;;;;;;6185616;23;20052;-65
2022/07/17 07:59:59;;;;;;;7.05;1.60;;;28.10;40.30;;;;;;6185592;23;20009;-65
2022/07/17 08:02:25;;;;;;;2.90;1.60;;;28.10;39.80;;;;;;6185419;23;20024;-65
2022/07/17 08:04:51;;;;;;;6.35;1.25;;;28.10;40.00;;;;;;6185399;23;20001;-65
2022/07/17 08:07:18;;;;;;;3.03;1.60;;;28.10;39.80;;;;;;6185120;23;20024;-64
2022/07/17 08:09:43;;;;;;;4.93;1.40;;;28.20;40.00;;;;;;6185491;23;20084;-65
2022/07/17 08:12:09;;;;;;;5.70;1.48;;;28.20;40.00;;;;;;6185220;23;20060;-65
2022/07/17 08:14:35;;;;;;;4.82;1.58;;;28.20;40.30;;;;;;6185512;23;20329;-65
2022/07/17 08:17:00;;;;;;;11.82;1.70;;;28.20;39.40;;;;;;6185011;23;20021;-65
2022/07/17 08:19:26;;;;;;;7.32;1.80;;;28.20;39.90;;;;;;6185317;23;20446;-65
2022/07/17 08:21:52;;;;;;;3.70;1.40;;;28.30;39.70;;;;;;6185548;23;20001;-65
2022/07/17 08:24:17;;;;;;;8.23;1.40;;;28.30;39.60;;;;;;6185838;23;20088;-65
2022/07/17 08:26:43;;;;;;;5.80;1.50;;;28.30;39.80;;;;;;6185360;23;20005;-65
2022/07/17 08:29:09;;;;;;;3.33;1.50;;;28.40;39.50;;;;;;6184980;23;20013;-65
2022/07/17 08:31:35;;;;;;;4.00;1.40;;;28.40;39.60;;;;;;6185478;23;20104;-65
2022/07/17 08:34:01;;;;;;;3.38;2.00;;;28.50;39.70;;;;;;6185370;23;20009;-65
2022/07/17 08:36:27;;;;;;;5.05;1.48;;;28.50;39.30;;;;;;6185293;23;20428;-65
2022/07/17 08:38:52;;;;;;;4.38;2.03;;;28.50;39.00;;;;;;6185159;23;20005;-65
2022/07/17 08:41:22;;;;;;;4.88;1.50;;;28.60;39.20;;;;;;6185516;23;20012;-65
2022/07/17 08:43:48;;;;;;;6.45;1.48;;;28.60;39.50;;;;;;6185944;23;20332;-65
2022/07/17 08:46:15;;;;;;;3.55;1.67;;;28.60;39.30;;;;;;6185194;23;20073;-65
2022/07/17 08:48:42;;;;;;;3.80;1.67;;;28.60;39.30;;;;;;6185370;23;20335;-67
2022/07/17 08:51:09;;;;;;;5.90;1.70;;;28.70;39.30;;;;;;6185619;23;20004;-65
2022/07/17 08:53:35;;;;;;;2.90;1.38;;;28.70;39.30;;;;;;6185319;23;20001;-65
2022/07/17 08:56:00;;;;;;;8.10;2.20;;;28.90;39.30;;;;;;6185384;23;20060;-65
2022/07/17 08:58:26;;;;;;;4.20;1.25;;;28.90;39.20;;;;;;6185197;23;20005;-65
2022/07/17 09:00:52;;;;;;;4.40;1.70;;;28.90;39.20;;;;;;6185399;23;20007;-71
2022/07/17 09:03:18;;;;;;;2.35;1.35;;;29.00;39.20;;;;;;6185499;23;20009;-65
2022/07/17 09:05:44;;;;;;;4.38;1.25;;;29.00;39.10;;;;;;6185605;23;20005;-65
2022/07/17 09:08:18;;;;;;;8.98;1.45;;;29.10;39.00;;;;;;6185488;23;20067;-65
2022/07/17 09:10:46;;;;;;;7.20;1.52;;;29.10;38.90;;;;;;6185195;23;20001;-65
2022/07/17 09:13:31;;;;;;;3.92;1.67;;;29.20;38.80;;;;;;6185516;23;20305;-65
2022/07/17 09:16:08;;;;;;;9.82;1.63;;;29.20;39.20;;;;;;6186371;23;20001;-65
2022/07/17 09:18:49;;;;;;;6.15;1.70;;;29.30;38.90;;;;;;6187131;23;20083;-65
2022/07/17 09:21:26;;;;;;;3.80;1.30;;;29.30;38.30;;;;;;6186988;23;20381;-66
2022/07/17 09:24:17;;;;;;;3.75;1.60;;;29.40;38.60;;;;;;6187172;23;20294;-66
2022/07/17 09:26:44;;;;;;;4.70;1.45;;;29.40;38.90;;;;;;6184965;23;20064;-66
2022/07/17 09:29:12;;;;;;;5.85;1.60;;;29.40;38.30;;;;;;6186728;23;20447;-65
2022/07/17 09:31:38;;;;;;;3.70;1.30;;;29.50;38.20;;;;;;6186928;23;20004;-65
2022/07/17 09:34:04;;;;;;;4.13;1.80;;;29.40;38.10;;;;;;6186763;23;20005;-66
2022/07/17 09:36:30;;;;;;;6.18;1.50;;;29.50;38.10;;;;;;6186399;23;20079;-65
2022/07/17 09:38:58;;;;;;;2.58;1.38;;;29.50;38.30;;;;;;6186795;23;20001;-65
2022/07/17 09:41:25;;;;;;;3.03;1.80;;;29.60;38.40;;;;;;6186491;23;20024;-65
2022/07/17 09:43:57;;;;;;;7.72;1.40;;;29.60;37.70;;;;;;6186217;23;20310;-65
2022/07/17 09:46:32;;;;;;;6.13;1.33;;;29.70;38.00;;;;;;6186775;23;20377;-65
2022/07/17 09:49:03;;;;;;;10.75;2.60;;;29.70;38.20;;;;;;6186669;23;20017;-65
2022/07/17 09:51:36;;;;;;;5.07;1.33;;;29.70;37.80;;;;;;6185917;23;20016;-66
2022/07/17 09:54:04;;;;;;;10.50;1.50;;;29.80;38.20;;;;;;6183657;23;20005;-65
2022/07/17 09:56:32;;;;;;;5.90;1.85;;;29.80;37.50;;;;;;6183251;23;20005;-65
2022/07/17 09:59:04;;;;;;;3.38;1.23;;;29.90;37.50;;;;;;6184710;23;20005;-65
2022/07/17 10:01:31;;;;;;;7.47;1.48;;;29.90;37.60;;;;;;6186610;23;20087;-64
2022/07/17 10:03:57;;;;;;;8.05;1.50;;;29.90;37.50;;;;;;6186246;23;20086;-65
2022/07/17 10:06:24;;;;;;;6.30;1.80;;;29.90;37.60;;;;;;6186744;23;20036;-64
2022/07/17 10:08:51;;;;;;;4.47;1.52;;;30.00;37.20;;;;;;6186402;23;20028;-64
2022/07/17 10:11:20;;;;;;;2.70;1.40;;;30.00;37.30;;;;;;6186725;23;20084;-65
2022/07/17 10:13:47;;;;;;;3.17;1.58;;;30.00;37.50;;;;;;6186904;23;20076;-65
2022/07/17 10:16:14;;;;;;;2.00;1.30;;;30.00;37.10;;;;;;6185793;23;20058;-64
2022/07/17 10:18:44;;;;;;;6.30;1.88;;;30.10;37.30;;;;;;6186273;23;20005;-65
2022/07/17 10:21:14;;;;;;;4.15;1.70;;;30.10;37.40;;;;;;6186357;23;20007;-65
2022/07/17 10:23:42;;;;;;;6.47;2.03;;;30.20;37.30;;;;;;6183023;23;20019;-65
2022/07/17 10:26:08;;;;;;;7.78;1.50;;;30.20;37.30;;;;;;6182460;23;20092;-65
2022/07/17 10:28:42;;;;;;;3.60;1.40;;;30.30;37.60;;;;;;6184902;23;20031;-67
2022/07/17 10:31:09;;;;;;;2.22;1.55;;;30.30;37.00;;;;;;6187385;23;20012;-69
2022/07/17 10:33:36;;;;;;;2.90;1.40;;;30.30;36.80;;;;;;6186410;23;20036;-63
2022/07/17 10:36:02;;;;;;;8.13;1.58;;;30.40;37.20;;;;;;6186168;23;20010;-64
2022/07/17 10:38:28;;;;;;;3.90;1.40;;;30.50;36.80;;;;;;6186593;23;20005;-65
2022/07/17 10:41:03;;;;;;;4.25;1.70;;;30.50;36.70;;;;;;6186367;23;20365;-64
2022/07/17 10:43:44;;;;;;;3.28;1.40;;;30.50;36.80;;;;;;6186250;23;20091;-65
2022/07/17 10:46:10;;;;;;;8.80;1.98;;;30.60;36.90;;;;;;6186599;23;20010;-65
2022/07/17 10:48:39;;;;;;;5.28;1.50;;;30.70;36.60;;;;;;6186325;23;20023;-65
2022/07/17 10:51:05;;;;;;;3.15;1.60;;;30.70;36.40;;;;;;6185902;23;20533;-64
2022/07/17 10:53:33;;;;;;;9.20;1.50;;;30.80;36.20;;;;;;6186092;23;20009;-64
2022/07/17 10:56:05;;;;;;;3.40;1.27;;;30.80;36.10;;;;;;6186169;23;19997;-64
2022/07/17 10:58:32;;;;;;;;;;;30.70;36.10;;;;;;6184642;23;20005;-65
2022/07/17 11:01:03;;;;;;;5.25;1.30;;;30.70;36.00;;;;;;6182603;23;19959;-65
2022/07/17 11:03:31;;;;;;;4.57;1.50;;;30.70;36.10;;;;;;6184145;23;20001;-65
2022/07/17 11:06:09;;;;;;;5.25;1.55;;;30.80;36.40;;;;;;6186070;23;19997;-65
2022/07/17 11:08:40;;;;;;;2.65;1.48;;;30.80;36.60;;;;;;6186428;23;20017;-65
2022/07/17 11:11:06;;;;;;;5.93;1.52;;;30.80;36.10;;;;;;6186328;23;20372;-64
2022/07/17 11:13:31;;;;;;;3.92;1.55;;;30.90;36.20;;;;;;6186096;23;20001;-65
2022/07/17 11:15:57;;;;;;;12.93;1.48;;;31.00;36.20;;;;;;6185662;23;20043;-65
2022/07/17 11:18:23;;;;;;;2.42;1.48;;;31.00;35.70;;;;;;6185500;23;20467;-65
2022/07/17 11:20:58;;;;;;;5.78;1.40;;;31.10;35.90;;;;;;6186168;23;20313;-65
2022/07/17 11:23:27;;;;;;;4.25;1.67;;;31.10;35.60;;;;;;6183988;23;20017;-65
2022/07/17 11:25:52;;;;;;;4.35;1.30;;;31.10;35.80;;;;;;6182393;23;20072;-65
2022/07/17 11:28:31;;;;;;;2.22;1.48;;;31.10;35.70;;;;;;6182185;23;20048;-65
2022/07/17 11:30:57;;;;;;;4.30;1.48;;;31.10;35.70;;;;;;6185473;23;20005;-65
2022/07/17 11:33:23;;;;;;;6.10;1.70;;;31.10;35.80;;;;;;6185987;23;20013;-65
2022/07/17 11:35:49;;;;;;;7.18;1.83;;;31.20;35.80;;;;;;6186088;23;20120;-65
2022/07/17 11:38:15;;;;;;;4.78;1.35;;;31.20;35.60;;;;;;6185292;23;20009;-65
2022/07/17 11:40:49;;;;;;;4.50;1.42;;;31.20;35.90;;;;;;6185682;23;20080;-64
2022/07/17 11:43:15;;;;;;;4.03;1.50;;;31.20;35.70;;;;;;6185454;23;20432;-65
2022/07/17 11:45:44;;;;;;;5.47;1.50;;;31.30;36.00;;;;;;6185210;23;20025;-65
2022/07/17 11:48:10;;;;;;;2.35;1.33;;;31.40;35.90;;;;;;6185344;23;20001;-65
2022/07/17 11:50:37;;;;;;;4.88;1.20;;;31.40;35.70;;;;;;6185186;23;20384;-65
2022/07/17 11:53:04;;;;;;;5.13;1.55;;;31.40;35.40;;;;;;6185007;23;20004;-65
2022/07/17 11:55:41;;;;;;;4.05;1.25;;;31.50;35.10;;;;;;6183941;23;20344;-65
2022/07/17 11:58:07;;;;;;;4.55;1.48;;;31.50;35.30;;;;;;6185585;23;20313;-65
2022/07/17 12:00:33;;;;;;;2.63;1.42;;;31.50;35.20;;;;;;6185149;23;20012;-65
2022/07/17 12:03:01;;;;;;;3.85;1.80;;;31.60;35.20;;;;;;6184997;23;20413;-65
2022/07/17 12:05:28;;;;;;;2.67;1.55;;;31.50;35.00;;;;;;6185489;23;20005;-65
2022/07/17 12:07:54;;;;;;;4.40;1.52;;;31.50;35.40;;;;;;6185514;23;20021;-64
2022/07/17 12:10:22;;;;;;;3.25;1.20;;;31.60;35.50;;;;;;6185679;23;20072;-64
2022/07/17 12:13:00;;;;;;;5.50;1.55;;;31.70;35.80;;;;;;6182725;23;20420;-65
2022/07/17 12:15:38;;;;;;;2.25;1.55;;;31.70;35.70;;;;;;6181801;23;20005;-65
2022/07/17 12:18:05;;;;;;;2.95;1.45;;;31.80;35.30;;;;;;6181931;23;20100;-66
2022/07/17 12:20:46;;;;;;;3.55;1.50;;;31.80;35.00;;;;;;6184848;23;20440;-65
2022/07/17 12:23:30;;;;;;;4.78;1.55;;;31.90;35.50;;;;;;6185442;23;20062;-65
2022/07/17 12:26:06;;;;;;;3.88;1.60;;;31.90;35.60;;;;;;6185030;23;20005;-65
2022/07/17 12:28:33;;;;;;;2.40;1.50;;;32.00;35.00;;;;;;6184814;23;20340;-64
2022/07/17 12:30:58;;;;;;;4.88;1.48;;;32.00;35.00;;;;;;6185367;23;19997;-64
2022/07/17 12:33:24;;;;;;;3.35;2.10;;;32.00;35.00;;;;;;6185455;23;20048;-64
2022/07/17 12:35:50;;;;;;;5.43;1.20;;;32.10;35.20;;;;;;6185230;23;20015;-64
2022/07/17 12:38:16;;;;;;;3.47;1.42;;;32.10;34.90;;;;;;6185272;23;20012;-65
2022/07/17 12:40:42;;;;;;;2.13;1.73;;;32.10;34.90;;;;;;6185353;23;20004;-65
2022/07/17 12:43:08;;;;;;;7.28;1.58;;;32.10;35.10;;;;;;6184941;23;20064;-64